Time;durP1;ratioP1;P1;durP2;ratioP2;P2;SDS_P1;SDS_P2;PMS_P1;PMS_P2;Temp;Humidity;BMP_temperature;BMP_pressure;BME280_temperature;BME280_humidity;BME280_pressure;Samples;Min_cycle;Max_cycle;Signal;HPM_P1;HPM_P2
2024/04/02 00:00:38;;;;;;;20.38;4.25;;;15.20;85.20;;;;;;5093774;28;20031;-71
2024/04/02 00:03:06;;;;;;;21.55;3.83;;;15.20;85.30;;;;;;5093344;28;20028;-71
2024/04/02 00:05:33;;;;;;;18.80;4.80;;;15.20;85.20;;;;;;5093604;28;20051;-71
2024/04/02 00:07:58;;;;;;;18.77;3.53;;;15.20;85.40;;;;;;5093840;28;20047;-72
2024/04/02 00:10:24;;;;;;;20.38;3.60;;;15.10;85.30;;;;;;5075409;28;20391;-71
2024/04/02 00:12:50;;;;;;;16.38;3.55;;;15.10;85.50;;;;;;5093497;28;20032;-71
2024/04/02 00:15:16;;;;;;;18.35;3.28;;;15.10;85.70;;;;;;5093447;28;20135;-71
2024/04/02 00:17:44;;;;;;;17.83;3.20;;;15.10;85.60;;;;;;5093202;28;20583;-71
2024/04/02 00:20:11;;;;;;;27.17;3.80;;;15.10;85.80;;;;;;5093280;28;20040;-73
2024/04/02 00:22:36;;;;;;;19.75;3.50;;;15.10;85.90;;;;;;5093587;28;20589;-71
2024/04/02 00:25:03;;;;;;;17.23;4.10;;;15.00;86.00;;;;;;5093305;28;20036;-72
2024/04/02 00:27:30;;;;;;;19.85;3.90;;;15.00;86.40;;;;;;5093359;28;20033;-71
2024/04/02 00:29:56;;;;;;;20.88;3.75;;;15.00;86.50;;;;;;5093267;28;20043;-72
2024/04/02 00:32:22;;;;;;;17.10;3.63;;;15.00;86.70;;;;;;5074994;28;20219;-72
2024/04/02 00:34:48;;;;;;;23.20;4.13;;;14.90;86.80;;;;;;5093041;28;20020;-71
2024/04/02 00:37:14;;;;;;;21.48;3.53;;;14.90;87.00;;;;;;5093084;28;20077;-72
2024/04/02 00:39:40;;;;;;;19.73;3.80;;;14.90;87.00;;;;;;5092962;28;20090;-72
2024/04/02 00:42:06;;;;;;;16.95;3.60;;;14.90;87.10;;;;;;5092880;28;20086;-70
2024/04/02 00:44:35;;;;;;;26.02;4.25;;;14.90;87.10;;;;;;5092854;28;20044;-70
2024/04/02 00:47:02;;;;;;;18.33;4.03;;;14.90;87.40;;;;;;5092683;28;20373;-71
2024/04/02 00:49:29;;;;;;;17.02;3.55;;;14.90;87.20;;;;;;5092860;28;20359;-71
2024/04/02 00:51:55;;;;;;;16.65;3.10;;;14.90;87.10;;;;;;5092896;28;20048;-70
2024/04/02 00:54:21;;;;;;;20.48;3.55;;;14.90;87.40;;;;;;5092653;28;20040;-70
2024/04/02 00:56:47;;;;;;;23.30;4.50;;;14.90;87.40;;;;;;5092672;28;20036;-71
2024/04/02 00:59:13;;;;;;;24.73;4.57;;;14.90;87.40;;;;;;5092219;28;20467;-72
2024/04/02 01:01:39;;;;;;;19.90;4.15;;;14.90;87.40;;;;;;5092660;28;20070;-72
2024/04/02 01:04:05;;;;;;;20.58;3.80;;;14.90;87.50;;;;;;5074135;28;20127;-71
2024/04/02 01:06:31;;;;;;;18.95;3.28;;;14.90;87.70;;;;;;5092223;28;20407;-71
2024/04/02 01:08:57;;;;;;;20.92;4.13;;;14.90;87.80;;;;;;5092585;28;20040;-70
2024/04/02 01:11:24;;;;;;;24.00;4.32;;;15.00;88.00;;;;;;5092490;28;20044;-71
2024/04/02 01:13:51;;;;;;;21.80;4.35;;;15.00;87.70;;;;;;5092488;28;20028;-71
2024/04/02 01:16:18;;;;;;;19.85;3.80;;;15.00;87.90;;;;;;5092326;28;20028;-72
2024/04/02 01:18:47;;;;;;;22.58;3.80;;;15.10;88.10;;;;;;5092504;28;20047;-71
2024/04/02 01:21:16;;;;;;;20.20;4.00;;;15.10;87.80;;;;;;5092251;28;20028;-72
2024/04/02 01:23:42;;;;;;;19.50;3.78;;;15.10;87.90;;;;;;5092987;28;20038;-71
2024/04/02 01:26:08;;;;;;;23.27;4.18;;;15.20;87.90;;;;;;5107705;28;20112;-70
2024/04/02 01:28:34;;;;;;;31.85;4.78;;;15.20;87.90;;;;;;5104095;28;20040;-71
2024/04/02 01:30:59;;;;;;;22.05;4.38;;;15.20;87.90;;;;;;5114493;28;20031;-71
2024/04/02 01:33:25;;;;;;;21.20;4.03;;;15.30;88.00;;;;;;5101500;28;20083;-71
2024/04/02 01:35:51;;;;;;;22.35;4.07;;;15.30;88.00;;;;;;5109887;28;20032;-72
2024/04/02 01:38:16;;;;;;;20.35;3.50;;;15.30;88.10;;;;;;5103916;28;20039;-72
2024/04/02 01:40:42;;;;;;;24.05;3.78;;;15.30;88.00;;;;;;5111245;28;20369;-70
2024/04/02 01:43:08;;;;;;;23.90;5.03;;;15.40;88.10;;;;;;5113341;28;20131;-72
2024/04/02 01:45:34;;;;;;;22.52;4.68;;;15.40;88.00;;;;;;5112629;28;20502;-72
2024/04/02 01:47:59;;;;;;;23.45;4.63;;;15.40;88.00;;;;;;5112363;28;20038;-71
2024/04/02 01:50:25;;;;;;;13.65;3.30;;;15.30;88.00;;;;;;5084155;28;20039;-71
2024/04/02 01:52:51;;;;;;;24.38;4.50;;;15.30;88.00;;;;;;5091796;28;20111;-71
2024/04/02 01:55:17;;;;;;;23.98;4.28;;;15.30;88.10;;;;;;5091970;28;20024;-71
2024/04/02 01:57:43;;;;;;;23.73;4.00;;;15.30;88.70;;;;;;5091898;28;20039;-71
2024/04/02 02:00:09;;;;;;;23.33;3.60;;;15.30;88.10;;;;;;5073562;28;20043;-71
2024/04/02 02:02:35;;;;;;;22.70;4.20;;;15.30;88.10;;;;;;5091520;28;20113;-72
2024/04/02 02:05:01;;;;;;;22.13;4.07;;;15.30;88.10;;;;;;5091967;28;20548;-71
2024/04/02 02:07:27;;;;;;;23.98;4.18;;;15.40;88.30;;;;;;5091457;28;20044;-71
2024/04/02 02:09:52;;;;;;;13.95;3.60;;;15.40;88.30;;;;;;5091557;28;20039;-71
2024/04/02 02:12:18;;;;;;;24.35;4.15;;;15.30;88.10;;;;;;5094696;28;20036;-72
2024/04/02 02:14:44;;;;;;;23.85;3.75;;;15.30;88.20;;;;;;5095740;28;20032;-71
2024/04/02 02:17:10;;;;;;;16.23;3.20;;;15.30;88.30;;;;;;5095875;28;20033;-69
2024/04/02 02:19:36;;;;;;;22.48;4.03;;;15.20;88.50;;;;;;5105787;28;20084;-72
2024/04/02 02:22:02;;;;;;;22.85;3.70;;;15.20;88.40;;;;;;5116037;28;20059;-71
2024/04/02 02:24:28;;;;;;;26.30;4.15;;;15.10;88.50;;;;;;5099574;28;20098;-72
2024/04/02 02:26:55;;;;;;;25.02;4.63;;;15.10;88.40;;;;;;5095236;28;20459;-72
2024/04/02 02:29:25;;;;;;;23.15;3.38;;;15.10;88.70;;;;;;5095532;28;20035;-72
2024/04/02 02:31:52;;;;;;;26.52;4.30;;;15.00;88.60;;;;;;5095403;28;20480;-71
2024/04/02 02:34:17;;;;;;;19.33;3.90;;;15.10;88.80;;;;;;5095238;28;20115;-71
2024/04/02 02:36:43;;;;;;;24.65;4.40;;;15.10;88.70;;;;;;5095234;28;20047;-70
2024/04/02 02:39:11;;;;;;;23.63;4.05;;;15.10;88.50;;;;;;5095214;28;20068;-71
2024/04/02 02:41:37;;;;;;;25.25;4.72;;;15.00;88.50;;;;;;5076664;28;20028;-71
2024/04/02 02:44:04;;;;;;;27.05;4.72;;;15.00;88.50;;;;;;5094952;28;20036;-72
2024/04/02 02:46:29;;;;;;;22.20;4.10;;;15.00;88.50;;;;;;5094802;28;20032;-72
2024/04/02 02:48:56;;;;;;;22.63;4.68;;;15.00;88.30;;;;;;5094987;28;20046;-72
2024/04/02 02:51:22;;;;;;;21.77;4.07;;;14.90;88.50;;;;;;5094810;28;20024;-72
2024/04/02 02:53:47;;;;;;;16.52;3.75;;;14.90;88.50;;;;;;5094805;28;20036;-72
2024/04/02 02:56:14;;;;;;;26.92;4.97;;;14.90;88.50;;;;;;5094901;28;20042;-71
2024/04/02 02:58:41;;;;;;;26.35;3.95;;;14.90;88.50;;;;;;5094817;28;20036;-71
2024/04/02 03:01:07;;;;;;;18.88;3.55;;;14.90;89.30;;;;;;5094928;28;20419;-72
2024/04/02 03:03:33;;;;;;;21.42;3.83;;;14.90;88.60;;;;;;5094732;28;20035;-72
2024/04/02 03:06:00;;;;;;;27.92;4.50;;;14.80;88.50;;;;;;5076358;28;20373;-71
2024/04/02 03:08:26;;;;;;;21.73;3.72;;;14.80;88.40;;;;;;5094387;28;20032;-72
2024/04/02 03:11:03;;;;;;;23.83;4.72;;;14.80;88.70;;;;;;5094501;28;20063;-72
2024/04/02 03:13:33;;;;;;;17.38;3.65;;;14.70;88.70;;;;;;5094177;28;20492;-70
2024/04/02 03:15:59;;;;;;;20.98;4.07;;;14.70;88.60;;;;;;5094684;28;20059;-71
2024/04/02 03:18:25;;;;;;;22.98;3.85;;;14.70;88.60;;;;;;5094178;28;20044;-71
2024/04/02 03:20:51;;;;;;;17.52;3.63;;;14.70;88.50;;;;;;5094215;28;20028;-71
2024/04/02 03:23:17;;;;;;;18.70;3.95;;;14.60;88.50;;;;;;5093630;28;20514;-72
2024/04/02 03:26:03;;;;;;;16.08;3.70;;;14.60;88.60;;;;;;5094253;28;20041;-71
2024/04/02 03:28:30;;;;;;;17.67;3.88;;;14.60;88.80;;;;;;5094281;28;20134;-72
2024/04/02 03:30:57;;;;;;;24.20;4.53;;;14.60;88.60;;;;;;5094459;28;20435;-71
2024/04/02 03:33:26;;;;;;;19.77;3.97;;;14.60;88.70;;;;;;5094131;28;20157;-72
2024/04/02 03:35:52;;;;;;;18.63;3.50;;;14.60;88.50;;;;;;5094018;28;20067;-71
2024/04/02 03:38:18;;;;;;;21.00;4.25;;;14.60;88.40;;;;;;5075722;28;20134;-72
2024/04/02 03:40:44;;;;;;;20.25;3.47;;;14.70;88.50;;;;;;5093809;28;20490;-71
2024/04/02 03:43:10;;;;;;;23.08;4.57;;;14.70;88.20;;;;;;5094119;28;20094;-72
2024/04/02 03:45:42;;;;;;;16.42;2.90;;;14.70;88.10;;;;;;5093971;28;20020;-71
2024/04/02 03:48:08;;;;;;;19.15;3.85;;;14.60;88.20;;;;;;5094094;28;20573;-70
2024/04/02 03:50:36;;;;;;;22.40;3.35;;;14.60;88.20;;;;;;5094625;28;20059;-72
2024/04/02 03:53:02;;;;;;;17.92;4.05;;;14.60;88.40;;;;;;5101804;28;20110;-71
2024/04/02 03:55:35;;;;;;;16.17;3.58;;;14.50;88.40;;;;;;5117561;28;20044;-71
2024/04/02 03:58:03;;;;;;;13.88;3.30;;;14.50;88.20;;;;;;5099627;28;20391;-71
2024/04/02 04:00:29;;;;;;;17.73;3.95;;;14.50;88.60;;;;;;5093985;28;20048;-71
2024/04/02 04:02:58;;;;;;;24.73;4.13;;;14.40;88.50;;;;;;5093711;28;20043;-71
2024/04/02 04:05:24;;;;;;;20.83;3.65;;;14.40;88.70;;;;;;5093774;28;20032;-71
2024/04/02 04:07:50;;;;;;;19.30;3.45;;;14.40;88.80;;;;;;5093777;28;20067;-72
2024/04/02 04:10:19;;;;;;;14.85;3.50;;;14.30;88.90;;;;;;5093443;28;20359;-72
2024/04/02 04:12:45;;;;;;;23.50;3.85;;;14.30;88.80;;;;;;5093483;28;20032;-71
2024/04/02 04:15:11;;;;;;;17.63;3.70;;;14.30;88.90;;;;;;5093427;28;20036;-71
2024/04/02 04:17:36;;;;;;;23.08;4.43;;;14.40;89.30;;;;;;5093572;28;20043;-71
2024/04/02 04:20:02;;;;;;;23.00;5.88;;;14.40;89.10;;;;;;5118197;22;20044;-71
2024/04/02 04:22:31;;;;;;;16.55;3.33;;;14.40;89.10;;;;;;5113787;28;20063;-72
2024/04/02 04:24:58;;;;;;;20.42;4.53;;;14.30;88.80;;;;;;5114025;28;20034;-70
2024/04/02 04:27:28;;;;;;;21.60;4.10;;;14.30;89.40;;;;;;5113503;28;20043;-70
2024/04/02 04:29:54;;;;;;;20.27;4.32;;;14.30;89.60;;;;;;5113419;28;20020;-70
2024/04/02 04:32:20;;;;;;;18.58;3.38;;;14.40;89.50;;;;;;5113583;28;20074;-72
2024/04/02 04:34:46;;;;;;;18.42;3.80;;;14.40;89.40;;;;;;5112443;28;20062;-72
2024/04/02 04:37:12;;;;;;;19.75;4.10;;;14.40;89.20;;;;;;5113262;28;20039;-72
2024/04/02 04:39:38;;;;;;;26.20;4.93;;;14.40;89.10;;;;;;5113425;28;20028;-71
2024/04/02 04:42:04;;;;;;;14.75;3.10;;;14.30;89.10;;;;;;5113310;28;20074;-71
2024/04/02 04:44:30;;;;;;;20.48;4.38;;;14.30;89.20;;;;;;5113445;28;20020;-72
2024/04/02 04:46:56;;;;;;;21.98;3.85;;;14.30;89.10;;;;;;5112939;28;20043;-70
2024/04/02 04:49:21;;;;;;;22.92;4.63;;;14.30;89.30;;;;;;5113118;28;20067;-73
2024/04/02 04:51:47;;;;;;;24.80;4.32;;;14.40;89.30;;;;;;5113239;28;20031;-72
2024/04/02 04:54:13;;;;;;;20.17;4.80;;;14.40;89.20;;;;;;5113153;28;20028;-72
2024/04/02 04:56:38;;;;;;;25.30;5.63;;;14.50;89.20;;;;;;5112998;28;20028;-71
2024/04/02 04:59:04;;;;;;;33.13;10.70;;;14.50;89.30;;;;;;5113472;27;20078;-71
2024/04/02 05:01:30;;;;;;;20.95;4.72;;;14.50;89.20;;;;;;5127508;27;20078;-71
2024/04/02 05:03:55;;;;;;;20.30;4.18;;;14.60;89.20;;;;;;5117799;27;20032;-71
2024/04/02 05:06:21;;;;;;;31.15;4.50;;;14.60;89.00;;;;;;5112815;28;20467;-72
2024/04/02 05:08:47;;;;;;;23.90;4.32;;;14.60;89.20;;;;;;5112688;28;20088;-71
2024/04/02 05:11:13;;;;;;;23.55;4.30;;;14.70;89.20;;;;;;5121524;27;20498;-71
2024/04/02 05:13:40;;;;;;;20.77;4.25;;;14.70;89.10;;;;;;5125942;27;20495;-71
2024/04/02 05:16:06;;;;;;;14.82;3.53;;;14.80;89.20;;;;;;5133156;27;20023;-72
2024/04/02 05:18:33;;;;;;;19.25;4.03;;;14.80;89.20;;;;;;5133078;27;20118;-71
2024/04/02 05:20:59;;;;;;;17.00;3.83;;;14.80;89.10;;;;;;5133329;27;20039;-71
2024/04/02 05:23:26;;;;;;;23.25;5.68;;;14.80;89.10;;;;;;5132893;27;20053;-72
2024/04/02 05:25:58;;;;;;;25.42;5.40;;;14.90;89.00;;;;;;5132933;27;20031;-71
2024/04/02 05:28:23;;;;;;;21.95;6.25;;;14.90;89.00;;;;;;5133029;27;20031;-71
2024/04/02 05:30:49;;;;;;;13.80;4.30;;;14.90;89.10;;;;;;5133008;27;20034;-71
2024/04/02 05:33:14;;;;;;;20.80;5.28;;;14.90;88.90;;;;;;5132982;27;20451;-72
2024/04/02 05:35:40;;;;;;;16.15;5.43;;;14.90;88.80;;;;;;5132838;27;20065;-72
2024/04/02 05:38:06;;;;;;;22.75;7.05;;;15.00;88.80;;;;;;5133009;27;20379;-72
2024/04/02 05:40:32;;;;;;;23.40;8.38;;;15.00;88.70;;;;;;5132737;27;20035;-72
2024/04/02 05:42:58;;;;;;;29.27;7.35;;;15.10;88.60;;;;;;5133026;27;20039;-71
2024/04/02 05:45:24;;;;;;;21.63;5.78;;;15.10;88.10;;;;;;5132608;27;20035;-72
2024/04/02 05:47:50;;;;;;;19.98;4.07;;;15.20;88.10;;;;;;5114113;28;20125;-72
2024/04/02 05:50:17;;;;;;;21.38;4.28;;;15.30;88.10;;;;;;5108557;28;20159;-71
2024/04/02 05:52:43;;;;;;;19.80;4.47;;;15.50;87.70;;;;;;5091555;28;20036;-72
2024/04/02 05:55:09;;;;;;;15.50;4.40;;;15.70;87.20;;;;;;5091812;28;20105;-71
2024/04/02 05:57:36;;;;;;;23.90;4.32;;;16.00;86.70;;;;;;5073923;28;20487;-71
2024/04/02 06:00:05;;;;;;;27.35;4.18;;;16.80;85.20;;;;;;5092274;28;20028;-72
2024/04/02 06:02:31;;;;;;;23.73;3.90;;;17.80;82.90;;;;;;5092043;28;20039;-73
2024/04/02 06:04:57;;;;;;;19.35;3.95;;;18.70;81.20;;;;;;5092107;28;20500;-70
2024/04/02 06:07:23;;;;;;;18.73;4.80;;;19.50;79.40;;;;;;5098040;28;20028;-71
2024/04/02 06:09:49;;;;;;;20.15;4.88;;;20.20;77.00;;;;;;5112249;28;20039;-71
2024/04/02 06:12:15;;;;;;;21.60;4.20;;;20.70;75.40;;;;;;5112202;28;20058;-70
2024/04/02 06:14:41;;;;;;;13.68;3.97;;;21.20;73.90;;;;;;5112640;28;20319;-72
2024/04/02 06:17:07;;;;;;;19.95;4.75;;;21.50;73.00;;;;;;5112406;28;20040;-71
2024/04/02 06:19:33;;;;;;;18.67;4.90;;;22.00;72.00;;;;;;5112245;28;20038;-71
2024/04/02 06:21:59;;;;;;;17.60;4.50;;;22.30;70.80;;;;;;5108711;28;20043;-71
2024/04/02 06:24:25;;;;;;;17.80;4.70;;;22.90;69.80;;;;;;5103007;28;20024;-73
2024/04/02 06:26:51;;;;;;;13.98;3.67;;;23.40;68.30;;;;;;5088777;28;20530;-72
2024/04/02 06:29:18;;;;;;;18.52;3.50;;;23.70;67.10;;;;;;5084752;28;20032;-72
2024/04/02 06:31:44;;;;;;;19.40;4.15;;;23.80;66.20;;;;;;5112020;28;20494;-73
2024/04/02 06:34:10;;;;;;;16.45;3.47;;;23.60;66.60;;;;;;5109977;28;20038;-72
2024/04/02 06:36:36;;;;;;;17.27;3.38;;;22.80;66.90;;;;;;5102634;28;20198;-71
2024/04/02 06:39:02;;;;;;;17.10;4.10;;;21.60;68.60;;;;;;5091518;28;20032;-71
2024/04/02 06:41:29;;;;;;;16.80;3.63;;;20.60;70.70;;;;;;5091682;28;20032;-71
2024/04/02 06:43:55;;;;;;;18.58;4.32;;;19.80;72.50;;;;;;5098593;28;20038;-73
2024/04/02 06:46:21;;;;;;;21.52;4.60;;;19.30;74.20;;;;;;5110250;28;20138;-72
2024/04/02 06:48:46;;;;;;;20.38;3.92;;;19.10;74.60;;;;;;5106603;28;20102;-71
2024/04/02 06:51:13;;;;;;;19.00;3.78;;;19.00;75.30;;;;;;5103529;28;20055;-72
2024/04/02 06:53:39;;;;;;;16.52;3.80;;;20.30;73.70;;;;;;5101230;28;20050;-71
2024/04/02 06:56:06;;;;;;;21.98;4.22;;;21.30;70.90;;;;;;5093172;28;20637;-71
2024/04/02 06:58:32;;;;;;;21.55;4.45;;;21.20;70.40;;;;;;5108454;28;20031;-70
2024/04/02 07:00:58;;;;;;;13.38;3.47;;;22.50;68.50;;;;;;5109323;28;20047;-72
2024/04/02 07:03:24;;;;;;;19.58;4.07;;;23.70;66.30;;;;;;5112046;27;20032;-73
2024/04/02 07:05:52;;;;;;;14.43;3.63;;;24.70;63.40;;;;;;5103661;27;20111;-70
2024/04/02 07:08:18;;;;;;;19.13;3.42;;;25.70;60.90;;;;;;5098113;28;20040;-74
2024/04/02 07:10:58;;;;;;;14.88;3.92;;;26.30;59.50;;;;;;5116188;28;20067;-74
2024/04/02 07:13:24;;;;;;;14.48;3.08;;;27.10;58.20;;;;;;5127457;28;20093;-75
2024/04/02 07:15:50;;;;;;;17.88;3.50;;;27.30;57.00;;;;;;5094555;28;20031;-75
2024/04/02 07:18:15;;;;;;;11.65;3.15;;;27.00;56.70;;;;;;5113793;28;20119;-76
2024/04/02 07:20:41;;;;;;;10.35;2.30;;;26.20;57.10;;;;;;5114519;28;20055;-75
2024/04/02 07:23:08;;;;;;;14.23;2.83;;;25.80;57.60;;;;;;5110198;28;20028;-74
2024/04/02 07:25:33;;;;;;;15.82;2.97;;;26.20;56.60;;;;;;5093708;28;20036;-74
2024/04/02 07:27:59;;;;;;;12.15;2.55;;;26.80;55.40;;;;;;5093314;28;20040;-75
2024/04/02 07:30:25;;;;;;;10.93;2.30;;;27.10;54.10;;;;;;5093612;28;20024;-75
2024/04/02 07:32:51;;;;;;;9.27;2.17;;;27.10;53.40;;;;;;5093671;28;20062;-75
2024/04/02 07:35:17;;;;;;;8.93;2.25;;;26.30;54.00;;;;;;5093109;28;20056;-75
2024/04/02 07:37:43;;;;;;;11.63;2.30;;;24.80;55.00;;;;;;5093903;28;20070;-77
2024/04/02 07:40:09;;;;;;;11.55;2.30;;;23.80;56.20;;;;;;5094163;28;20035;-78
2024/04/02 07:42:35;;;;;;;12.32;2.90;;;22.90;57.80;;;;;;5094794;28;20141;-76
2024/04/02 07:45:01;;;;;;;9.27;2.28;;;22.50;58.60;;;;;;5106719;28;20053;-76
2024/04/02 07:47:26;;;;;;;10.80;2.17;;;22.00;58.70;;;;;;5107839;28;20478;-75
2024/04/02 07:49:52;;;;;;;11.38;2.92;;;21.60;59.10;;;;;;5101638;28;20043;-76
2024/04/02 07:52:18;;;;;;;14.07;2.30;;;21.20;59.50;;;;;;5093761;28;20028;-73
2024/04/02 07:54:44;;;;;;;12.20;2.47;;;20.90;60.00;;;;;;5102948;28;20031;-75
2024/04/02 07:57:09;;;;;;;13.27;2.47;;;20.90;60.70;;;;;;5106241;28;20036;-74
2024/04/02 07:59:35;;;;;;;11.70;2.65;;;20.90;60.60;;;;;;5107158;28;20066;-77
2024/04/02 08:02:01;;;;;;;9.65;2.60;;;20.60;61.30;;;;;;5099383;28;20040;-75
2024/04/02 08:04:27;;;;;;;8.55;2.03;;;20.30;61.30;;;;;;5108672;28;20032;-79
2024/04/02 08:06:53;;;;;;;10.32;2.40;;;20.10;62.10;;;;;;5099944;28;20040;-79
2024/04/02 08:09:19;;;;;;;11.65;2.78;;;20.00;63.30;;;;;;5104717;28;20028;-80
2024/04/02 08:11:45;;;;;;;11.00;2.53;;;19.80;64.10;;;;;;5103276;28;20047;-81
2024/04/02 08:14:10;;;;;;;10.85;2.95;;;19.60;65.00;;;;;;5107587;28;20050;-78
2024/04/02 08:16:36;;;;;;;14.57;2.78;;;19.40;65.70;;;;;;5101168;28;20446;-75
2024/04/02 08:19:02;;;;;;;14.40;2.38;;;19.20;67.40;;;;;;5102168;28;20146;-76
2024/04/02 08:21:28;;;;;;;15.05;3.45;;;19.00;67.50;;;;;;5103101;28;20051;-75
2024/04/02 08:23:53;;;;;;;20.50;3.50;;;19.00;68.30;;;;;;5101557;28;20028;-75
2024/04/02 08:26:19;;;;;;;10.88;2.35;;;19.00;69.30;;;;;;5103752;28;20051;-74
2024/04/02 08:28:46;;;;;;;17.55;2.78;;;18.90;69.00;;;;;;5098566;28;20048;-75
2024/04/02 08:31:12;;;;;;;13.25;2.40;;;18.80;69.40;;;;;;5093082;28;20040;-75
2024/04/02 08:33:38;;;;;;;16.17;3.63;;;18.70;69.90;;;;;;5094153;28;20039;-74
2024/04/02 08:36:04;;;;;;;11.68;3.00;;;18.60;70.10;;;;;;5101912;28;20453;-74
2024/04/02 08:38:29;;;;;;;16.30;2.97;;;18.60;70.80;;;;;;5109184;28;20071;-75
2024/04/02 08:41:04;;;;;;;14.77;3.58;;;18.40;71.10;;;;;;5108916;28;20479;-75
2024/04/02 08:43:31;;;;;;;17.40;3.47;;;18.30;72.10;;;;;;5101551;28;20108;-76
2024/04/02 08:46:00;;;;;;;20.48;3.60;;;18.30;72.80;;;;;;5105640;28;20036;-75
2024/04/02 08:48:26;;;;;;;14.25;3.70;;;18.30;73.50;;;;;;5095356;28;20127;-77
2024/04/02 08:50:53;;;;;;;17.52;3.90;;;18.20;73.60;;;;;;5107012;28;20099;-77
2024/04/02 08:53:19;;;;;;;17.98;4.15;;;18.20;74.30;;;;;;5110881;28;20046;-75
2024/04/02 08:55:46;;;;;;;18.23;3.15;;;18.20;74.80;;;;;;5099512;28;20368;-76
2024/04/02 08:58:12;;;;;;;17.85;3.90;;;18.30;75.00;;;;;;5109190;28;20067;-76
2024/04/02 09:00:39;;;;;;;15.95;3.70;;;18.40;75.10;;;;;;5104769;28;20138;-76
2024/04/02 09:03:07;;;;;;;24.38;3.65;;;18.60;75.40;;;;;;5105134;28;20074;-78
2024/04/02 09:05:33;;;;;;;15.20;3.63;;;18.70;75.30;;;;;;5103796;28;20039;-73
2024/04/02 09:07:58;;;;;;;21.80;4.00;;;18.90;74.90;;;;;;5112417;28;20112;-74
2024/04/02 09:10:24;;;;;;;16.60;4.05;;;19.10;75.20;;;;;;5094850;28;20024;-74
2024/04/02 09:12:50;;;;;;;26.10;4.30;;;19.10;74.90;;;;;;5103908;28;20103;-73
2024/04/02 09:15:15;;;;;;;20.75;3.58;;;19.10;75.40;;;;;;5104260;28;20032;-73
2024/04/02 09:17:41;;;;;;;21.70;4.32;;;19.10;75.50;;;;;;5100718;28;20492;-73
2024/04/02 09:20:07;;;;;;;19.25;3.65;;;19.10;75.60;;;;;;5122587;28;20023;-76
2024/04/02 09:22:33;;;;;;;15.60;3.40;;;19.20;75.20;;;;;;5114810;28;20670;-74
2024/04/02 09:24:59;;;;;;;15.35;3.65;;;19.20;73.70;;;;;;5129738;28;20489;-78
2024/04/02 09:27:25;;;;;;;16.15;2.97;;;19.10;72.80;;;;;;5103264;28;20043;-76
2024/04/02 09:29:54;;;;;;;11.35;3.33;;;19.10;72.20;;;;;;5110113;28;20325;-75
2024/04/02 09:32:23;;;;;;;13.90;2.95;;;19.10;71.60;;;;;;5081349;28;20383;-72
2024/04/02 09:34:52;;;;;;;17.73;3.03;;;19.10;71.30;;;;;;5075692;28;20295;-74
2024/04/02 09:37:35;;;;;;;13.45;2.97;;;19.10;70.70;;;;;;5104488;28;20109;-74
2024/04/02 09:40:04;;;;;;;21.27;3.67;;;19.10;70.80;;;;;;5102864;28;20035;-75
2024/04/02 09:42:31;;;;;;;14.45;3.25;;;19.00;71.10;;;;;;5102212;28;20078;-76
2024/04/02 09:44:59;;;;;;;14.27;2.88;;;19.00;71.40;;;;;;5104916;28;20061;-75
2024/04/02 09:47:25;;;;;;;13.57;3.28;;;19.00;71.30;;;;;;5101514;28;20055;-79
2024/04/02 09:49:52;;;;;;;22.48;3.42;;;19.10;71.30;;;;;;5095851;28;20036;-76
2024/04/02 09:52:22;;;;;;;16.50;3.38;;;19.10;71.50;;;;;;5108536;28;20510;-75
2024/04/02 09:54:49;;;;;;;15.43;3.63;;;19.10;72.60;;;;;;5105194;28;20418;-75
2024/04/02 09:57:16;;;;;;;19.25;3.78;;;19.10;72.20;;;;;;5106350;28;20040;-77
2024/04/02 09:59:42;;;;;;;15.23;3.28;;;19.20;72.70;;;;;;5104407;28;20028;-75
2024/04/02 10:02:21;;;;;;;18.40;4.00;;;19.30;72.80;;;;;;5102267;28;20040;-77
2024/04/02 10:04:50;;;;;;;20.02;4.03;;;19.30;73.00;;;;;;5101320;28;20028;-75
2024/04/02 10:07:23;;;;;;;14.40;3.45;;;19.10;72.80;;;;;;5105662;28;20094;-75
2024/04/02 10:10:00;;;;;;;17.83;3.08;;;19.00;73.20;;;;;;5104090;28;20038;-74
2024/04/02 10:12:36;;;;;;;16.45;3.17;;;19.10;73.60;;;;;;5095085;28;20039;-77
2024/04/02 10:15:09;;;;;;;17.55;3.13;;;19.30;73.60;;;;;;5107147;28;20036;-76
2024/04/02 10:17:35;;;;;;;12.35;2.85;;;19.40;73.00;;;;;;5107869;28;20540;-74
